CJX7 weather

CLOSED Old Arctic Bay Airport
Arctic Bay, Nunavut, Canada

Public forecast

Using degrees Celsius for public forecast. Weather courtesy of forecast.io.

Closest aviation weather report (METAR) to Old Arctic Bay Airport

Closest report is Arctic Bay Airport, 0.2 nm (0.3 km) W. Retrieved 2020/07/09 22:00 UTC (2 hours ago):

CYAB 092200Z 24003KT 30SM FEW029 08/03 A2974 RMK CU1 RA GAUGE 00 LAST STFD OBS/NXT 101100Z SLP075

Closest aviation forecast (TAF) to Old Arctic Bay Airport

Closest forecast is Arctic Bay Airport, 0.2 nm (0.3 km) W. Retrieved 2020/07/09 19:00 UTC (5 hours ago):

TAF CYAB 091838Z 0919/0922 VRB03KT P6SM FEW030 SCT240 RMK NXT FCST WILL BE ISSUED AT 101245Z